Carson, CA

11:28 PM PDT on May 22, 2015 (GMT -0700)
Near Western/Lomita | | Change Station
CLOSE
Current Station
Personal Weather Station
Location: Harbor City, CA
Elevation: 90 ft
Nearby Weather Stations

Elev 90 ft 33.80 °N, 118.30 °W | Updated 4 minutes ago

Overcast
Overcast
60.2 °F
Feels Like 60.2 °F
N
0.0
Wind Variable Wind from West
Gusts 2.0 mph

Today
High -- | Low -- °F
--% Chance of Precip.
Yesterday
High -- | Low -- °F
Precip. -- in
5:47 AM 7:52 PM
Waxing Crescent, 27% visible
Pressure 30.07 in
Visibility 10.0 miles
Clouds Few 7000 ft
Dew Point 55 °F
Humidity 83%
Rainfall 0.00 in
Snow Depth Not available.
UV 0 out of 12
Pollen 4.00 out of 12
Air Quality Not available.
Flu Activity Sporadic
METAR KLGB 230553Z 31005KT 10SM FEW070 16/12 A3007 RMK AO2 SLP182 T01610122 10189 20161 51009 $

More Conditions Fewer Conditions

Pressure 30.07 in
Visibility 10.0 miles
Clouds Few 7000 ft
Dew Point 55 °F
Humidity 83%
Rainfall 0.00 in
Snow Depth Not available.
UV 0 out of 12
Pollen 4.00 out of 12
Air Quality Not available.
Flu Activity Sporadic
METAR KLGB 230553Z 31005KT 10SM FEW070 16/12 A3007 RMK AO2 SLP182 T01610122 10189 20161 51009 $

More Conditions Fewer Conditions

10-Day Weather Forecast

Almanac

Astronomy

May. 22, 2015 Rise Set
Actual Time
Civil Twilight
Nautical Twilight
Astronomical Twilight
Moon
Length of Visible Light
Length of Day
Tomorrow will be .
, % of the Moon is Illuminated

Today's Extremes

State Highs State Lows

Community

WunderPhotos

Upload Photos

1,823,394 photos uploaded!

WunderBlogs® & News

Nearby

Air Quality

  Air Quality AQ Index Pollutant
Not available.

Snow Depth

Station Depth Elevation

Earthquake Activity

City Distance Mag. Time & Date
Minimum magnitude displayed is 2.5.

Coastal Water Temperatures

Place Temperature

Stations

Nearby Weather Stations

Station Location Temp. Windchill Dew Point Humidity Wind Precip. Elev Updated Type